createdAt,value
2019-04-22T00:00:00.516Z,999.16
2019-04-22T00:00:57.754Z,999.32
2019-04-22T00:02:05.175Z,999.23
2019-04-22T00:03:03.613Z,999.16
2019-04-22T00:04:03.574Z,999.08
2019-04-22T00:05:07.318Z,999.20
2019-04-22T00:06:17.990Z,999.14
2019-04-22T00:07:22.959Z,999.12
2019-04-22T00:08:24.213Z,999.11
2019-04-22T00:09:24.142Z,999.08
2019-04-22T00:10:26.117Z,999.09
2019-04-22T00:11:29.042Z,999.09
2019-04-22T00:12:32.917Z,999.09
2019-04-22T00:13:25.960Z,999.08
2019-04-22T00:14:19.424Z,999.09
2019-04-22T00:15:19.939Z,999.01
2019-04-22T00:16:27.870Z,999.02
2019-04-22T00:17:35.318Z,999.05
2019-04-22T00:18:40.014Z,999.01
2019-04-22T00:19:29.346Z,999.00
2019-04-22T00:20:22.946Z,999.03
2019-04-22T00:21:28.559Z,999.01
2019-04-22T00:23:24.509Z,998.98
2019-04-22T00:24:24.512Z,998.95
2019-04-22T00:25:30.697Z,998.85
2019-04-22T00:26:23.943Z,998.86
2019-04-22T00:27:28.136Z,998.88
2019-04-22T00:28:26.411Z,998.87
2019-04-22T00:29:42.373Z,998.84
2019-04-22T00:30:34.239Z,998.80
2019-04-22T00:31:20.925Z,998.87
2019-04-22T00:32:11.382Z,998.87
2019-04-22T00:33:20.567Z,998.91
2019-04-22T00:34:25.409Z,998.85
2019-04-22T00:35:18.298Z,998.80
2019-04-22T00:36:23.307Z,998.80
2019-04-22T00:37:25.154Z,998.80
2019-04-22T00:38:26.115Z,998.85
2019-04-22T00:39:34.267Z,998.88
2019-04-22T00:40:30.873Z,998.84
2019-04-22T00:41:21.451Z,998.83
2019-04-22T00:42:21.447Z,998.77
2019-04-22T00:43:25.883Z,998.73
2019-04-22T00:44:26.020Z,998.75
2019-04-22T00:45:26.954Z,998.82
2019-04-22T00:46:25.130Z,998.79
2019-04-22T00:47:27.907Z,998.66
2019-04-22T00:48:27.106Z,998.72
2019-04-22T00:50:23.856Z,998.74
2019-04-22T00:51:48.738Z,998.68
2019-04-22T00:52:21.812Z,998.71
2019-04-22T00:53:22.560Z,998.72
2019-04-22T00:54:21.429Z,998.68
2019-04-22T00:55:24.750Z,998.67
2019-04-22T00:56:21.967Z,998.72
2019-04-22T00:57:21.526Z,998.72
2019-04-22T00:58:24.640Z,998.69
2019-04-22T00:59:23.839Z,998.65
2019-04-22T01:00:28.944Z,998.64
2019-04-22T01:02:27.737Z,998.67
2019-04-22T01:03:27.783Z,998.65
2019-04-22T01:04:27.993Z,998.58
2019-04-22T01:05:30.212Z,998.60
2019-04-22T01:06:33.311Z,998.53
2019-04-22T01:07:23.912Z,998.60
2019-04-22T01:08:36.810Z,998.51
2019-04-22T01:09:23.502Z,998.60
2019-04-22T01:10:26.452Z,998.53
2019-04-22T01:11:31.125Z,998.54
2019-04-22T01:12:26.449Z,998.55
2019-04-22T01:13:27.593Z,998.51
2019-04-22T01:14:25.001Z,998.59
2019-04-22T01:15:23.637Z,998.45
2019-04-22T01:16:23.838Z,998.48
2019-04-22T01:17:24.430Z,998.51
2019-04-22T01:18:21.109Z,998.45
2019-04-22T01:19:23.730Z,998.47
2019-04-22T01:20:45.695Z,998.52
2019-04-22T01:21:28.886Z,998.48
2019-04-22T01:22:20.778Z,998.47
2019-04-22T01:23:19.747Z,998.50
2019-04-22T01:24:17.288Z,998.48
2019-04-22T01:25:19.083Z,998.41
2019-04-22T01:26:15.893Z,998.40
2019-04-22T01:27:11.508Z,998.47
2019-04-22T01:28:16.602Z,998.37
2019-04-22T01:29:10.950Z,998.40
2019-04-22T01:30:09.718Z,998.40
2019-04-22T01:31:07.267Z,998.34
2019-04-22T01:31:58.216Z,998.37
2019-04-22T01:33:05.695Z,998.33
2019-04-22T01:34:10.983Z,998.32
2019-04-22T01:35:13.054Z,998.39
2019-04-22T01:36:15.710Z,998.36
2019-04-22T01:37:14.139Z,998.29
2019-04-22T01:38:13.200Z,998.31
2019-04-22T01:39:21.872Z,998.36
2019-04-22T01:40:25.394Z,998.34
2019-04-22T01:41:25.075Z,998.33
2019-04-22T01:42:16.872Z,998.25
2019-04-22T01:43:25.173Z,998.29
2019-04-22T01:45:25.895Z,998.27
2019-04-22T01:46:25.904Z,998.26
2019-04-22T01:47:30.250Z,998.27
2019-04-22T01:48:29.501Z,998.28
2019-04-22T01:49:25.671Z,998.29
2019-04-22T01:50:27.759Z,998.24
2019-04-22T01:51:35.527Z,998.27
2019-04-22T01:52:20.353Z,998.29
2019-04-22T01:53:27.461Z,998.27
2019-04-22T01:54:29.910Z,998.29
2019-04-22T01:55:29.532Z,998.23
2019-04-22T01:56:31.698Z,998.27
2019-04-22T01:57:24.177Z,998.23
2019-04-22T01:58:21.479Z,998.24
2019-04-22T01:59:16.856Z,998.21
2019-04-22T02:00:16.339Z,998.21
2019-04-22T02:01:22.386Z,998.09
2019-04-22T02:02:25.166Z,998.17
2019-04-22T02:03:25.587Z,998.13
2019-04-22T02:04:26.954Z,998.16
2019-04-22T02:05:24.432Z,998.12
2019-04-22T02:06:22.132Z,998.13
2019-04-22T02:07:23.505Z,998.05
2019-04-22T02:08:31.276Z,998.11
2019-04-22T02:10:29.817Z,998.12
2019-04-22T02:11:29.274Z,998.09
2019-04-22T02:12:25.650Z,998.11
2019-04-22T02:13:23.724Z,998.08
2019-04-22T02:14:26.989Z,998.02
2019-04-22T02:15:23.438Z,997.99
2019-04-22T02:16:29.008Z,998.06
2019-04-22T02:17:28.641Z,997.99
2019-04-22T02:18:31.812Z,998.08
2019-04-22T02:19:36.753Z,998.09
2019-04-22T02:20:27.006Z,998.00
2019-04-22T02:21:22.391Z,997.99
2019-04-22T02:22:38.044Z,998.02
2019-04-22T02:23:45.800Z,998.04
2019-04-22T02:24:30.151Z,997.95
2019-04-22T02:25:24.576Z,997.98
2019-04-22T02:26:27.654Z,997.94
2019-04-22T02:27:29.246Z,997.94
2019-04-22T02:28:32.520Z,997.98
2019-04-22T02:29:24.303Z,997.95
2019-04-22T02:30:27.840Z,997.96
2019-04-22T02:32:38.831Z,997.95
2019-04-22T02:35:36.510Z,997.89
2019-04-22T02:36:30.412Z,997.85
2019-04-22T02:37:23.318Z,997.83
2019-04-22T02:38:44.563Z,997.89
2019-04-22T02:39:24.585Z,997.82
2019-04-22T02:40:34.650Z,997.84
2019-04-22T02:42:27.806Z,997.88
2019-04-22T02:43:56.955Z,997.81
2019-04-22T02:44:31.346Z,997.80
2019-04-22T02:45:46.914Z,997.75
2019-04-22T02:47:27.541Z,997.76
2019-04-22T02:48:48.235Z,997.83
2019-04-22T02:50:43.442Z,997.81
2019-04-22T02:52:34.807Z,997.68
2019-04-22T02:55:23.636Z,997.69
2019-04-22T02:57:35.545Z,997.74
2019-04-22T02:58:37.410Z,997.64
2019-04-22T02:59:34.496Z,997.61
2019-04-22T03:00:29.359Z,997.70
2019-04-22T03:01:33.128Z,997.59
2019-04-22T03:02:46.092Z,997.65
2019-04-22T03:03:43.302Z,997.61
2019-04-22T03:07:23.473Z,997.54
2019-04-22T03:08:30.061Z,997.57
2019-04-22T03:09:35.718Z,997.60
2019-04-22T03:10:43.872Z,997.53
2019-04-22T03:11:34.309Z,997.54
2019-04-22T03:12:21.637Z,997.48
2019-04-22T03:14:46.132Z,997.53
2019-04-22T03:15:20.043Z,997.49
2019-04-22T03:16:36.647Z,997.47
2019-04-22T03:17:29.272Z,997.44
2019-04-22T03:20:24.796Z,997.52
2019-04-22T03:21:31.760Z,997.48
2019-04-22T03:23:35.672Z,997.46
2019-04-22T03:24:25.636Z,997.48
2019-04-22T03:25:51.794Z,997.46
2019-04-22T03:26:39.040Z,997.37
2019-04-22T03:27:35.297Z,997.45
2019-04-22T03:28:27.326Z,997.36
2019-04-22T03:29:39.118Z,997.39
2019-04-22T03:30:48.136Z,997.41
2019-04-22T03:31:58.697Z,997.46
2019-04-22T03:32:52.824Z,997.39
2019-04-22T03:34:09.714Z,997.39
2019-04-22T03:38:41.607Z,997.38
2019-04-22T03:41:41.395Z,997.35
2019-04-22T03:42:51.901Z,997.40
2019-04-22T03:43:35.899Z,997.33
2019-04-22T03:46:30.470Z,997.33
2019-04-22T03:47:45.405Z,997.42
2019-04-22T03:48:26.035Z,997.35
2019-04-22T03:49:39.291Z,997.34
2019-04-22T03:50:25.892Z,997.34
2019-04-22T03:51:38.265Z,997.35
2019-04-22T03:52:20.765Z,997.37
2019-04-22T03:54:39.533Z,997.43
2019-04-22T03:56:56.465Z,997.42
2019-04-22T03:57:40.508Z,997.34
2019-04-22T03:58:21.431Z,997.35
2019-04-22T03:59:36.302Z,997.30
2019-04-22T04:00:41.691Z,997.34
2019-04-22T04:01:37.256Z,997.39
2019-04-22T04:02:41.398Z,997.37
2019-04-22T04:03:29.170Z,997.37
2019-04-22T04:05:41.144Z,997.35
2019-04-22T04:06:36.599Z,997.35
2019-04-22T04:07:48.096Z,997.33
2019-04-22T04:09:32.710Z,997.32
2019-04-22T04:10:37.486Z,997.35
2019-04-22T04:11:32.202Z,997.36
2019-04-22T04:12:28.458Z,997.31
2019-04-22T04:13:30.399Z,997.32
2019-04-22T04:16:30.670Z,997.36
2019-04-22T04:17:33.243Z,997.33
2019-04-22T04:18:30.692Z,997.41
2019-04-22T04:19:34.970Z,997.37
2019-04-22T04:20:34.369Z,997.35
2019-04-22T04:26:35.156Z,997.32
2019-04-22T04:27:43.199Z,997.30
2019-04-22T04:28:46.429Z,997.29
2019-04-22T04:29:45.718Z,997.29
2019-04-22T04:33:28.966Z,997.19
2019-04-22T04:34:47.877Z,997.28
2019-04-22T04:36:35.533Z,997.24
2019-04-22T04:37:42.556Z,997.27
2019-04-22T04:38:32.383Z,997.30
2019-04-22T04:41:34.133Z,997.22
2019-04-22T04:43:30.016Z,997.24
2019-04-22T04:44:55.143Z,997.21
2019-04-22T04:45:40.781Z,997.24
2019-04-22T04:46:37.788Z,997.22
2019-04-22T04:47:41.143Z,997.22
2019-04-22T04:48:32.338Z,997.19
2019-04-22T04:50:27.210Z,997.21
2019-04-22T04:51:33.042Z,997.19
2019-04-22T04:52:40.756Z,997.25
2019-04-22T04:54:30.484Z,997.22
2019-04-22T04:55:35.003Z,997.13
2019-04-22T04:56:36.492Z,997.13
2019-04-22T04:57:33.587Z,997.13
2019-04-22T04:58:43.556Z,997.12
2019-04-22T04:59:33.242Z,997.12
2019-04-22T05:01:42.400Z,997.10
2019-04-22T05:02:41.000Z,997.10
2019-04-22T05:03:46.037Z,997.15
2019-04-22T05:05:28.780Z,997.19
2019-04-22T05:06:33.099Z,997.17
2019-04-22T05:08:40.776Z,997.17
2019-04-22T05:09:47.615Z,997.18
2019-04-22T05:11:35.008Z,997.13
2019-04-22T05:12:45.888Z,997.17
2019-04-22T05:13:37.025Z,997.19
2019-04-22T05:14:24.859Z,997.15
2019-04-22T05:15:27.323Z,997.19
2019-04-22T05:17:25.476Z,997.18
2019-04-22T05:18:34.433Z,997.15
2019-04-22T05:19:25.685Z,997.20
2019-04-22T05:22:21.458Z,997.08
2019-04-22T05:23:24.991Z,997.09
2019-04-22T05:24:36.705Z,997.13
2019-04-22T05:25:41.030Z,997.09
2019-04-22T05:26:29.330Z,997.09
2019-04-22T05:27:32.951Z,997.06
2019-04-22T05:28:24.409Z,997.10
2019-04-22T05:29:26.731Z,997.03
2019-04-22T05:31:27.615Z,997.10
2019-04-22T05:32:27.026Z,997.08
2019-04-22T05:33:23.668Z,997.12
2019-04-22T05:34:25.759Z,997.14
2019-04-22T05:36:25.964Z,997.12
2019-04-22T05:37:23.617Z,997.10
2019-04-22T05:38:31.401Z,997.08
2019-04-22T05:39:17.321Z,997.08
2019-04-22T05:40:24.561Z,997.07
2019-04-22T05:41:27.234Z,997.08
2019-04-22T05:42:17.872Z,997.12
2019-04-22T05:43:21.271Z,997.10
2019-04-22T05:45:21.546Z,997.14
2019-04-22T05:46:20.755Z,997.14
2019-04-22T05:47:20.872Z,997.13
2019-04-22T05:48:18.889Z,997.13
2019-04-22T05:49:18.234Z,997.21
2019-04-22T05:50:18.975Z,997.13
2019-04-22T05:51:17.805Z,997.09
2019-04-22T05:52:22.327Z,997.07
2019-04-22T05:53:20.054Z,997.08
2019-04-22T05:54:22.365Z,997.00
2019-04-22T05:55:22.672Z,997.11
2019-04-22T05:56:28.106Z,997.08
2019-04-22T05:57:18.096Z,997.09
2019-04-22T05:58:22.545Z,997.04
2019-04-22T05:59:37.947Z,997.05
2019-04-22T06:00:25.857Z,997.12
2019-04-22T06:02:30.929Z,997.04
2019-04-22T06:03:16.727Z,997.08
2019-04-22T06:04:41.406Z,997.11
2019-04-22T06:05:17.203Z,997.06
2019-04-22T06:06:18.254Z,996.99
2019-04-22T06:07:25.322Z,997.00
2019-04-22T06:08:16.678Z,997.01
2019-04-22T06:09:24.820Z,996.98
2019-04-22T06:10:39.460Z,997.04
2019-04-22T06:12:19.095Z,997.12
2019-04-22T06:13:17.979Z,997.02
2019-04-22T06:14:15.288Z,997.07
2019-04-22T06:15:18.318Z,996.99
2019-04-22T06:16:20.525Z,997.04
2019-04-22T06:17:24.770Z,997.02
2019-04-22T06:18:22.759Z,996.99
2019-04-22T06:19:18.584Z,996.98
2019-04-22T06:20:09.179Z,996.96
2019-04-22T06:21:18.692Z,996.98
2019-04-22T06:22:30.359Z,996.94
2019-04-22T06:23:26.968Z,996.97
2019-04-22T06:24:23.284Z,996.98
2019-04-22T06:25:28.029Z,996.96
2019-04-22T06:26:30.937Z,996.96
2019-04-22T06:27:21.998Z,996.98
2019-04-22T06:28:30.227Z,996.99
2019-04-22T06:29:19.425Z,996.99
2019-04-22T06:30:23.320Z,996.97
2019-04-22T06:31:28.325Z,997.04
2019-04-22T06:33:20.780Z,996.93
2019-04-22T06:34:27.586Z,996.98
2019-04-22T06:35:36.400Z,997.00
2019-04-22T06:36:26.321Z,996.97
2019-04-22T06:37:26.130Z,997.04
2019-04-22T06:38:30.438Z,997.05
2019-04-22T06:40:24.831Z,997.04
2019-04-22T06:41:21.119Z,997.06
2019-04-22T06:42:26.608Z,997.03
2019-04-22T06:43:36.851Z,996.99
2019-04-22T06:46:20.853Z,997.00
2019-04-22T06:47:28.971Z,997.02
2019-04-22T06:49:27.974Z,997.04
2019-04-22T06:50:24.213Z,996.95
2019-04-22T06:51:19.803Z,996.97
2019-04-22T06:52:17.916Z,997.02
2019-04-22T06:53:17.573Z,996.96
2019-04-22T06:54:22.055Z,996.93
2019-04-22T06:55:24.889Z,997.05
2019-04-22T06:56:16.142Z,997.05
2019-04-22T06:57:20.762Z,996.98
2019-04-22T06:58:15.374Z,997.00
2019-04-22T06:59:22.993Z,996.99
2019-04-22T07:00:18.518Z,996.97
2019-04-22T07:01:35.730Z,997.08
2019-04-22T07:02:25.622Z,997.05
2019-04-22T07:04:17.244Z,996.95
2019-04-22T07:05:23.363Z,997.02
2019-04-22T07:06:37.282Z,997.05
2019-04-22T07:07:20.158Z,997.02
2019-04-22T07:08:46.944Z,996.96
2019-04-22T07:10:28.631Z,997.01
2019-04-22T07:11:18.512Z,997.02
2019-04-22T07:12:30.523Z,996.97
2019-04-22T07:13:23.301Z,997.07
2019-04-22T07:14:16.363Z,997.05
2019-04-22T07:15:36.902Z,997.04
2019-04-22T07:17:26.253Z,997.02
2019-04-22T07:18:24.995Z,997.04
2019-04-22T07:19:20.590Z,996.97
2019-04-22T07:20:24.136Z,997.07
2019-04-22T07:21:19.710Z,997.09
2019-04-22T07:23:33.392Z,997.09
2019-04-22T07:24:35.595Z,997.10
2019-04-22T07:25:15.690Z,997.03
2019-04-22T07:26:16.228Z,997.06
2019-04-22T07:28:15.728Z,997.00
2019-04-22T07:30:25.323Z,997.17
2019-04-22T07:31:16.000Z,997.02
2019-04-22T07:32:29.764Z,997.10
2019-04-22T07:33:20.550Z,997.11
2019-04-22T07:34:34.622Z,997.06
2019-04-22T07:35:22.757Z,997.04
2019-04-22T07:37:29.151Z,997.01
2019-04-22T07:38:25.682Z,997.12
2019-04-22T07:39:15.681Z,997.06
2019-04-22T07:40:17.235Z,997.02
2019-04-22T07:41:23.073Z,997.11
2019-04-22T07:42:19.006Z,997.06
2019-04-22T07:45:22.562Z,996.97
2019-04-22T07:46:19.844Z,997.01
2019-04-22T07:47:25.743Z,997.00
2019-04-22T07:48:26.431Z,997.02
2019-04-22T07:49:22.037Z,997.04
2019-04-22T07:50:30.264Z,997.12
2019-04-22T07:51:23.207Z,997.03
2019-04-22T07:52:20.363Z,997.13
2019-04-22T07:53:19.822Z,997.00
2019-04-22T07:54:19.684Z,996.99
2019-04-22T07:55:11.907Z,997.09
2019-04-22T07:56:18.435Z,997.00
2019-04-22T07:57:27.801Z,997.08
2019-04-22T07:58:18.613Z,997.00
2019-04-22T07:59:22.266Z,997.08
2019-04-22T08:01:20.301Z,997.05
2019-04-22T08:02:21.057Z,997.04
2019-04-22T08:03:28.937Z,997.04
2019-04-22T08:04:22.911Z,997.00
2019-04-22T08:05:22.807Z,997.07
2019-04-22T08:06:26.510Z,996.95
2019-04-22T08:07:18.106Z,996.91
2019-04-22T08:09:19.931Z,997.07
2019-04-22T08:10:29.980Z,996.88
2019-04-22T08:11:43.744Z,996.84
2019-04-22T08:12:20.309Z,996.94
2019-04-22T08:13:21.212Z,996.89
2019-04-22T08:14:22.482Z,997.00
2019-04-22T08:15:21.267Z,996.92
2019-04-22T08:16:19.938Z,996.96
2019-04-22T08:17:50.438Z,996.94
2019-04-22T08:18:17.209Z,996.91
2019-04-22T08:19:22.766Z,997.02
2019-04-22T08:20:25.147Z,996.99
2019-04-22T08:21:19.742Z,996.94
2019-04-22T08:22:17.107Z,997.03
2019-04-22T08:23:19.181Z,996.97
2019-04-22T08:24:35.975Z,997.06
2019-04-22T08:25:18.088Z,997.01
2019-04-22T08:26:20.584Z,997.01
2019-04-22T08:27:15.299Z,996.96
2019-04-22T08:28:17.824Z,996.96
2019-04-22T08:29:20.322Z,997.01
2019-04-22T08:30:20.713Z,997.01
2019-04-22T08:31:25.091Z,997.02
2019-04-22T08:32:21.934Z,996.95
2019-04-22T08:33:21.574Z,996.91
2019-04-22T08:34:20.817Z,996.95
2019-04-22T08:35:20.237Z,996.97
2019-04-22T08:36:23.316Z,996.97
2019-04-22T08:37:41.871Z,996.88
2019-04-22T08:38:14.671Z,996.93
2019-04-22T08:39:21.775Z,996.90
2019-04-22T08:40:21.026Z,996.89
2019-04-22T08:41:28.351Z,996.95
2019-04-22T08:42:28.002Z,996.86
2019-04-22T08:43:30.081Z,996.90
2019-04-22T08:44:26.092Z,996.91
2019-04-22T08:45:14.950Z,996.88
2019-04-22T08:46:24.179Z,996.82
2019-04-22T08:48:15.023Z,996.83
2019-04-22T08:49:10.558Z,996.86
2019-04-22T08:50:36.423Z,996.87
2019-04-22T08:51:22.177Z,996.89
2019-04-22T08:52:26.096Z,996.87
2019-04-22T08:53:28.507Z,996.86
2019-04-22T08:54:24.512Z,996.85
2019-04-22T08:55:20.958Z,996.87
2019-04-22T08:57:22.944Z,996.88
2019-04-22T08:59:28.233Z,996.80
2019-04-22T09:00:19.932Z,996.79
2019-04-22T09:01:21.213Z,996.81
2019-04-22T09:02:19.819Z,996.76
2019-04-22T09:03:10.766Z,996.76
2019-04-22T09:04:11.973Z,996.78
2019-04-22T09:05:22.543Z,996.78
2019-04-22T09:06:29.591Z,996.75
2019-04-22T09:07:31.486Z,996.76
2019-04-22T09:08:19.090Z,996.72
2019-04-22T09:09:21.219Z,996.72
2019-04-22T09:10:18.099Z,996.70
2019-04-22T09:11:20.070Z,996.78
2019-04-22T09:12:23.786Z,996.79
2019-04-22T09:13:13.935Z,996.67
2019-04-22T09:14:22.590Z,996.62
2019-04-22T09:15:20.605Z,996.71
2019-04-22T09:16:19.413Z,996.69
2019-04-22T09:17:20.105Z,996.66
2019-04-22T09:19:19.688Z,996.60
2019-04-22T09:20:20.531Z,996.59
2019-04-22T09:21:32.675Z,996.57
2019-04-22T09:22:17.305Z,996.65
2019-04-22T09:23:24.695Z,996.65
2019-04-22T09:24:16.512Z,996.74
2019-04-22T09:25:17.021Z,996.59
2019-04-22T09:26:27.386Z,996.60
2019-04-22T09:27:31.786Z,996.66
2019-04-22T09:28:15.122Z,996.64
2019-04-22T09:29:20.754Z,996.64
2019-04-22T09:30:18.747Z,996.60
2019-04-22T09:31:19.656Z,996.55
2019-04-22T09:32:19.001Z,996.62
2019-04-22T09:33:25.750Z,996.61
2019-04-22T09:34:20.993Z,996.53
2019-04-22T09:35:21.368Z,996.61
2019-04-22T09:36:25.733Z,996.59
2019-04-22T09:37:27.181Z,996.58
2019-04-22T09:39:21.462Z,996.59
2019-04-22T09:40:22.349Z,996.54
2019-04-22T09:41:24.935Z,996.56
2019-04-22T09:42:17.237Z,996.51
2019-04-22T09:43:17.391Z,996.46
2019-04-22T09:44:16.466Z,996.57
2019-04-22T09:45:15.259Z,996.55
2019-04-22T09:46:19.830Z,996.52
2019-04-22T09:47:19.124Z,996.52
2019-04-22T09:48:23.493Z,996.53
2019-04-22T09:49:23.417Z,996.63
2019-04-22T09:50:16.424Z,996.65
2019-04-22T09:51:20.206Z,996.52
2019-04-22T09:52:16.215Z,996.44
2019-04-22T09:53:25.441Z,996.39
2019-04-22T09:54:21.676Z,996.49
2019-04-22T09:55:18.258Z,996.36
2019-04-22T09:56:18.105Z,996.48
2019-04-22T09:57:15.764Z,996.44
2019-04-22T09:58:20.885Z,996.43
2019-04-22T09:59:34.883Z,996.53
2019-04-22T10:00:13.938Z,996.38
2019-04-22T10:01:22.660Z,996.36
2019-04-22T10:03:36.505Z,996.40
2019-04-22T10:04:14.183Z,996.26
2019-04-22T10:05:20.894Z,996.36
2019-04-22T10:06:29.355Z,996.36
2019-04-22T10:07:23.911Z,996.30
2019-04-22T10:08:24.582Z,996.11
2019-04-22T10:09:34.338Z,996.23
2019-04-22T10:10:20.537Z,996.28
2019-04-22T10:11:23.979Z,996.27
2019-04-22T10:12:19.259Z,996.26
2019-04-22T10:13:18.735Z,996.20
2019-04-22T10:14:18.756Z,996.15
2019-04-22T10:15:13.864Z,996.14
2019-04-22T10:16:17.347Z,996.05
2019-04-22T10:17:15.461Z,996.18
2019-04-22T10:18:16.250Z,996.20
2019-04-22T10:19:16.850Z,996.15
2019-04-22T10:20:16.759Z,996.12
2019-04-22T10:21:28.100Z,996.09
2019-04-22T10:22:19.703Z,996.09
2019-04-22T10:23:19.024Z,996.07
2019-04-22T10:24:16.749Z,996.01
2019-04-22T10:25:16.880Z,996.08
2019-04-22T10:26:22.314Z,996.03
2019-04-22T10:27:14.349Z,996.06
2019-04-22T10:29:16.991Z,996.00
2019-04-22T10:30:27.324Z,996.02
2019-04-22T10:31:21.884Z,996.01
2019-04-22T10:32:14.742Z,996.14
2019-04-22T10:33:13.227Z,996.01
2019-04-22T10:34:05.380Z,995.96
2019-04-22T10:35:01.938Z,996.01
2019-04-22T10:35:51.884Z,995.91
2019-04-22T10:36:56.888Z,995.94
2019-04-22T10:37:52.168Z,995.92
2019-04-22T10:38:50.763Z,995.84
2019-04-22T10:39:56.239Z,995.87
2019-04-22T10:40:52.558Z,995.76
2019-04-22T10:41:50.736Z,995.84
2019-04-22T10:42:51.469Z,995.82
2019-04-22T10:43:51.036Z,995.87
2019-04-22T10:44:51.847Z,995.76
2019-04-22T10:45:52.193Z,995.85
2019-04-22T10:46:51.965Z,995.85
2019-04-22T10:47:52.141Z,995.85
2019-04-22T10:48:50.658Z,995.80
2019-04-22T10:49:52.098Z,995.76
2019-04-22T10:50:50.709Z,995.75
2019-04-22T10:51:50.821Z,995.77
2019-04-22T10:52:50.664Z,995.76
2019-04-22T10:53:51.272Z,995.66
2019-04-22T10:54:51.665Z,995.69
2019-04-22T10:55:51.673Z,995.78
2019-04-22T10:56:50.845Z,995.69
2019-04-22T10:57:50.761Z,995.72
2019-04-22T10:58:50.859Z,995.71
2019-04-22T10:59:50.556Z,995.70
2019-04-22T11:00:52.098Z,995.53
2019-04-22T11:01:50.671Z,995.54
2019-04-22T11:02:50.563Z,995.60
2019-04-22T11:03:51.127Z,995.63
2019-04-22T11:04:50.507Z,995.55
2019-04-22T11:05:50.643Z,995.57
2019-04-22T11:06:55.690Z,995.52
2019-04-22T11:07:57.538Z,995.54
2019-04-22T11:08:56.206Z,995.43
2019-04-22T11:09:58.977Z,995.42
2019-04-22T11:11:09.398Z,995.44
2019-04-22T11:11:58.446Z,995.54
2019-04-22T11:12:51.421Z,995.44
2019-04-22T11:13:51.932Z,995.49
2019-04-22T11:14:51.633Z,995.41
2019-04-22T11:15:50.985Z,995.17
2019-04-22T11:16:50.387Z,995.51
2019-04-22T11:17:51.404Z,995.39
2019-04-22T11:18:51.671Z,995.32
2019-04-22T11:19:50.358Z,995.47
2019-04-22T11:20:51.545Z,995.48
2019-04-22T11:21:59.896Z,995.45
2019-04-22T11:22:52.976Z,995.42
2019-04-22T11:23:50.530Z,995.49
2019-04-22T11:24:50.827Z,995.44
2019-04-22T11:25:50.299Z,995.40
2019-04-22T11:26:50.300Z,995.38
2019-04-22T11:27:51.374Z,995.39
2019-04-22T11:28:51.668Z,995.33
2019-04-22T11:29:50.266Z,995.27
2019-04-22T11:30:50.307Z,995.35
2019-04-22T11:31:50.538Z,995.18
2019-04-22T11:32:50.702Z,995.26
2019-04-22T11:33:50.364Z,995.31
2019-04-22T11:34:51.200Z,995.29
2019-04-22T11:35:50.270Z,995.18
2019-04-22T11:36:50.593Z,995.27
2019-04-22T11:37:50.719Z,995.23
2019-04-22T11:38:56.469Z,995.29
2019-04-22T11:40:04.366Z,995.21
2019-04-22T11:40:53.974Z,995.32
2019-04-22T11:41:50.151Z,995.30
2019-04-22T11:42:50.321Z,995.29
2019-04-22T11:43:51.350Z,995.24
2019-04-22T11:44:50.971Z,995.23
2019-04-22T11:45:51.177Z,995.23
2019-04-22T11:46:51.539Z,995.22
2019-04-22T11:47:51.087Z,995.18
2019-04-22T11:48:50.114Z,995.14
2019-04-22T11:49:50.064Z,995.12
2019-04-22T11:50:51.552Z,995.13
2019-04-22T11:51:50.049Z,995.00
2019-04-22T11:52:50.991Z,995.16
2019-04-22T11:53:50.028Z,995.12
2019-04-22T11:54:50.694Z,995.11
2019-04-22T11:55:50.833Z,995.06
2019-04-22T11:56:50.000Z,995.09
2019-04-22T11:57:49.984Z,995.11
2019-04-22T11:58:50.856Z,994.92
2019-04-22T11:59:51.052Z,995.07
2019-04-22T12:00:51.676Z,994.93
2019-04-22T12:01:50.995Z,995.06
2019-04-22T12:02:51.158Z,994.96
2019-04-22T12:03:49.935Z,994.97
2019-04-22T12:04:49.948Z,994.93
2019-04-22T12:05:50.019Z,995.02
2019-04-22T12:06:49.904Z,995.02
2019-04-22T12:07:50.961Z,995.03
2019-04-22T12:08:50.099Z,994.96
2019-04-22T12:09:51.299Z,994.92
2019-04-22T12:10:54.605Z,994.84
2019-04-22T12:11:51.719Z,994.87
2019-04-22T12:12:51.498Z,994.99
2019-04-22T12:13:49.836Z,994.87
2019-04-22T12:14:50.123Z,994.87
2019-04-22T12:15:51.052Z,994.81
2019-04-22T12:16:49.855Z,994.78
2019-04-22T12:17:51.009Z,994.78
2019-04-22T12:18:51.100Z,994.80
2019-04-22T12:19:50.398Z,994.71
2019-04-22T12:20:50.957Z,994.79
2019-04-22T12:21:50.949Z,994.77
2019-04-22T12:22:51.290Z,994.87
2019-04-22T12:23:50.904Z,994.79
2019-04-22T12:24:50.348Z,994.72
2019-04-22T12:25:56.109Z,994.91
2019-04-22T12:26:50.729Z,994.71
2019-04-22T12:27:50.792Z,994.66
2019-04-22T12:28:50.990Z,994.69
2019-04-22T12:29:51.089Z,994.71
2019-04-22T12:30:51.156Z,994.66
2019-04-22T12:31:49.659Z,994.59
2019-04-22T12:32:50.505Z,994.59
2019-04-22T12:33:49.715Z,994.54
2019-04-22T12:34:49.637Z,994.57
2019-04-22T12:35:50.531Z,994.47
2019-04-22T12:36:51.091Z,994.44
2019-04-22T12:37:54.055Z,994.44
2019-04-22T12:38:51.458Z,994.50
2019-04-22T12:39:52.987Z,994.49
2019-04-22T12:40:56.619Z,994.50
2019-04-22T12:41:51.970Z,994.44
2019-04-22T12:42:49.560Z,994.49
2019-04-22T12:43:49.565Z,994.35
2019-04-22T12:44:51.052Z,994.31
2019-04-22T12:45:50.092Z,994.40
2019-04-22T12:46:50.263Z,994.35
2019-04-22T12:47:50.445Z,994.30
2019-04-22T12:48:49.930Z,994.30
2019-04-22T12:49:56.168Z,994.29
2019-04-22T12:50:53.874Z,994.35
2019-04-22T12:51:49.602Z,994.31
2019-04-22T12:52:55.559Z,994.32
2019-04-22T12:53:50.929Z,994.28
2019-04-22T12:54:50.781Z,994.28
2019-04-22T12:55:50.287Z,994.18
2019-04-22T12:56:49.423Z,994.19
2019-04-22T12:57:53.367Z,994.21
2019-04-22T12:58:51.699Z,994.17
2019-04-22T12:59:49.827Z,994.19
2019-04-22T13:00:51.378Z,994.21
2019-04-22T13:01:50.989Z,994.15
2019-04-22T13:02:49.369Z,994.20
2019-04-22T13:03:50.140Z,994.11
2019-04-22T13:04:49.969Z,994.16
2019-04-22T13:05:49.577Z,994.11
2019-04-22T13:06:49.940Z,994.11
2019-04-22T13:07:49.639Z,994.03
2019-04-22T13:08:49.851Z,993.98
2019-04-22T13:09:49.614Z,993.99
2019-04-22T13:10:55.205Z,994.01
2019-04-22T13:11:51.010Z,993.98
2019-04-22T13:12:49.265Z,993.81
2019-04-22T13:13:49.438Z,993.96
2019-04-22T13:14:50.645Z,993.94
2019-04-22T13:15:50.905Z,993.92
2019-04-22T13:16:49.310Z,993.96
2019-04-22T13:18:01.077Z,993.87
2019-04-22T13:18:57.599Z,993.84
2019-04-22T13:19:50.189Z,993.86
2019-04-22T13:20:50.315Z,993.71
2019-04-22T13:21:49.207Z,993.78
2019-04-22T13:22:50.503Z,993.79
2019-04-22T13:23:49.163Z,993.80
2019-04-22T13:24:49.934Z,993.70
2019-04-22T13:25:49.221Z,993.69
2019-04-22T13:26:50.567Z,993.73
2019-04-22T13:27:49.225Z,993.86
2019-04-22T13:28:49.311Z,993.55
2019-04-22T13:29:49.119Z,993.67
2019-04-22T13:30:50.488Z,993.66
2019-04-22T13:31:49.112Z,993.70
2019-04-22T13:32:49.187Z,993.69
2019-04-22T13:33:52.764Z,993.67
2019-04-22T13:34:53.933Z,993.58
2019-04-22T13:35:50.047Z,993.65
2019-04-22T13:36:50.342Z,993.62
2019-04-22T13:37:49.023Z,993.54
2019-04-22T13:38:49.253Z,993.61
2019-04-22T13:39:49.296Z,993.53
2019-04-22T13:41:00.654Z,993.58
2019-04-22T13:41:54.563Z,993.63
2019-04-22T13:42:51.191Z,993.53
2019-04-22T13:43:49.279Z,993.62
2019-04-22T13:44:49.697Z,993.58
2019-04-22T13:45:49.847Z,993.59
2019-04-22T13:47:08.242Z,993.55
2019-04-22T13:48:09.915Z,993.62
2019-04-22T13:49:21.276Z,993.59
2019-04-22T13:51:21.797Z,993.47
2019-04-22T13:52:20.709Z,993.56
2019-04-22T13:53:30.390Z,993.49
2019-04-22T13:55:16.403Z,993.44